Time;durP1;ratioP1;P1;durP2;ratioP2;P2;SDS_P1;SDS_P2;PMS_P1;PMS_P2;Temp;Humidity;BMP_temperature;BMP_pressure;BME280_temperature;BME280_humidity;BME280_pressure;Samples;Min_cycle;Max_cycle;Signal;HPM_P1;HPM_P2
2023/09/30 00:01:14;;;;;;;11.80;3.37;;;;;;;14.41;95.81;101119.91;5067896;28;20698;-82
2023/09/30 00:03:40;;;;;;;8.20;3.53;;;;;;;14.02;97.90;101103.31;5067287;28;20651;-84
2023/09/30 00:06:09;;;;;;;5.93;3.23;;;;;;;14.15;98.57;101078.47;5067027;28;20210;-82
2023/09/30 00:08:35;;;;;;;14.80;4.53;;;;;;;13.87;100.00;101071.25;5067782;28;20235;-82
2023/09/30 00:11:04;;;;;;;7.07;3.97;;;;;;;13.75;100.00;101058.38;5067968;28;20225;-83
2023/09/30 00:13:30;;;;;;;10.87;3.80;;;;;;;14.01;100.00;101056.94;5067574;28;20229;-82
2023/09/30 00:15:57;;;;;;;11.33;4.17;;;;;;;14.00;100.00;101065.72;5072390;28;20205;-84
2023/09/30 00:18:23;;;;;;;10.17;4.60;;;;;;;13.94;100.00;101050.13;5056252;28;20220;-83
2023/09/30 00:20:49;;;;;;;9.20;3.57;;;;;;;13.82;100.00;101048.63;5048310;28;20282;-84
2023/09/30 00:23:18;;;;;;;5.87;3.50;;;;;;;13.95;100.00;101043.97;5049385;28;20206;-83
2023/09/30 00:25:45;;;;;;;7.10;3.97;;;;;;;14.18;99.40;101077.56;5047521;28;20209;-84
2023/09/30 00:28:11;;;;;;;9.53;4.07;;;;;;;14.12;99.29;101090.84;5047643;28;20701;-84
2023/09/30 00:30:38;;;;;;;8.90;3.90;;;;;;;14.01;99.37;101093.69;5048118;28;20237;-84
2023/09/30 00:33:05;;;;;;;10.30;3.67;;;;;;;14.33;98.17;101105.19;5047355;28;20202;-84
2023/09/30 00:35:33;;;;;;;8.43;3.73;;;;;;;13.95;98.07;101122.69;5055164;28;20598;-84
2023/09/30 00:37:59;;;;;;;7.40;4.10;;;;;;;13.89;99.45;101106.22;5068098;28;20206;-81
2023/09/30 00:40:27;;;;;;;10.87;4.90;;;;;;;13.97;98.47;101111.25;5068380;28;20224;-84
2023/09/30 00:42:53;;;;;;;7.97;3.73;;;;;;;13.90;98.33;101120.19;5068374;28;20648;-82
2023/09/30 00:45:20;;;;;;;8.60;3.37;;;;;;;14.00;97.85;101132.22;5068477;28;20208;-83
2023/09/30 00:47:46;;;;;;;6.13;3.67;;;;;;;13.93;97.71;101135.84;5065409;28;20235;-83
2023/09/30 00:50:13;;;;;;;9.07;4.33;;;;;;;14.02;97.14;101147.94;5046922;28;20222;-84
2023/09/30 00:52:40;;;;;;;10.97;4.10;;;;;;;14.10;96.37;101146.84;5047734;28;20217;-82
2023/09/30 00:55:10;;;;;;;11.30;4.10;;;;;;;14.04;96.10;101165.38;5047635;28;20233;-83
2023/09/30 00:57:39;;;;;;;8.47;4.33;;;;;;;13.84;96.75;101160.53;5048418;28;20213;-82
2023/09/30 01:00:07;;;;;;;11.33;4.80;;;;;;;13.70;99.01;101137.22;5067662;28;20292;-83
2023/09/30 01:02:34;;;;;;;9.37;3.70;;;;;;;13.67;99.18;101118.91;5067819;28;20223;-81
2023/09/30 01:05:02;;;;;;;12.37;4.90;;;;;;;13.53;100.00;101093.88;5068271;28;20232;-81
2023/09/30 01:07:28;;;;;;;9.27;5.50;;;;;;;13.45;100.00;101091.41;5068044;28;20234;-84
2023/09/30 01:09:55;;;;;;;9.70;5.63;;;;;;;13.42;100.00;101073.97;5064199;28;20249;-81
2023/09/30 01:12:21;;;;;;;10.80;5.73;;;;;;;13.63;100.00;101069.16;5047639;28;20214;-83
2023/09/30 01:14:49;;;;;;;7.57;5.17;;;;;;;13.60;100.00;101082.38;5054561;28;20264;-83
2023/09/30 01:17:15;;;;;;;10.40;6.03;;;;;;;13.45;100.00;101076.50;5052873;28;20228;-82
2023/09/30 01:19:43;;;;;;;14.23;5.73;;;;;;;13.32;100.00;101051.47;5047120;28;20237;-83
2023/09/30 01:22:10;;;;;;;9.27;5.40;;;;;;;13.35;100.00;101051.38;5047476;28;20201;-84
2023/09/30 01:24:41;;;;;;;18.47;6.23;;;;;;;13.47;100.00;101060.75;5047158;28;20209;-82
2023/09/30 01:27:07;;;;;;;10.60;5.97;;;;;;;13.49;100.00;101083.41;5048345;28;20214;-84
2023/09/30 01:29:34;;;;;;;8.40;5.53;;;;;;;13.22;100.00;101081.31;5048996;28;20813;-84
2023/09/30 01:32:01;;;;;;;11.77;6.23;;;;;;;13.14;100.00;101062.25;5050259;28;20246;-84
2023/09/30 01:34:27;;;;;;;8.70;5.40;;;;;;;13.19;100.00;101056.03;5049635;28;20230;-84
2023/09/30 01:36:54;;;;;;;10.43;5.40;;;;;;;13.36;100.00;101053.13;5060078;28;20207;-84
2023/09/30 01:39:22;;;;;;;14.90;6.70;;;;;;;13.11;100.00;101058.81;5053134;28;20233;-84
2023/09/30 01:41:48;;;;;;;9.97;6.40;;;;;;;12.86;100.00;101037.47;5047987;28;20256;-84
2023/09/30 01:44:15;;;;;;;8.87;6.07;;;;;;;12.80;100.00;101016.59;5057327;28;20252;-83
2023/09/30 01:46:41;;;;;;;10.73;6.00;;;;;;;13.02;100.00;101016.19;5068505;28;20209;-84
2023/09/30 01:49:08;;;;;;;9.90;6.83;;;;;;;12.74;100.00;101016.72;5054160;28;20234;-85
2023/09/30 01:51:34;;;;;;;10.20;6.70;;;;;;;12.97;100.00;101010.19;5048097;28;20208;-84
2023/09/30 01:54:00;;;;;;;12.33;6.93;;;;;;;12.89;100.00;101010.34;5048292;28;20233;-85
2023/09/30 01:56:28;;;;;;;12.10;7.37;;;;;;;12.81;100.00;101013.09;5066856;28;20204;-83
2023/09/30 01:58:55;;;;;;;7.90;6.77;;;;;;;13.04;100.00;101017.00;5072352;28;20201;-84
2023/09/30 02:01:22;;;;;;;12.43;7.00;;;;;;;13.07;100.00;101025.69;5068502;28;20217;-84
2023/09/30 02:03:49;;;;;;;9.93;6.33;;;;;;;12.87;100.00;101018.22;5067877;28;20235;-84
2023/09/30 02:06:15;;;;;;;12.73;6.67;;;;;;;12.83;100.00;101019.16;5068319;28;20205;-85
2023/09/30 02:08:44;;;;;;;11.03;7.10;;;;;;;12.78;100.00;101012.28;5068773;28;20226;-84
2023/09/30 02:11:13;;;;;;;19.43;8.33;;;;;;;12.66;100.00;101006.38;5067617;28;20228;-84
2023/09/30 02:13:42;;;;;;;13.80;8.00;;;;;;;12.63;100.00;100998.59;5054148;28;20199;-85
2023/09/30 02:16:12;;;;;;;13.87;7.40;;;;;;;12.64;100.00;100991.59;5072665;28;20241;-84
2023/09/30 02:18:40;;;;;;;15.87;7.90;;;;;;;12.64;100.00;101000.31;5066510;28;20204;-85
2023/09/30 02:21:07;;;;;;;12.67;6.93;;;;;;;12.68;100.00;101008.97;5059835;28;20239;-84
2023/09/30 02:23:34;;;;;;;12.03;6.33;;;;;;;12.69;100.00;101019.44;5069608;28;20217;-84
2023/09/30 02:26:00;;;;;;;9.90;6.17;;;;;;;12.55;100.00;101007.47;5069530;28;20205;-85
2023/09/30 02:28:27;;;;;;;14.07;6.13;;;;;;;12.60;100.00;100998.63;5071552;28;20197;-84
2023/09/30 02:30:54;;;;;;;9.23;5.90;;;;;;;12.73;100.00;101007.16;5076780;28;20212;-84
2023/09/30 02:33:21;;;;;;;9.73;5.40;;;;;;;12.76;100.00;101012.31;5077129;28;20185;-84
2023/09/30 02:35:47;;;;;;;11.40;5.17;;;;;;;12.71;100.00;101027.25;5076908;28;20219;-84
2023/09/30 02:38:15;;;;;;;9.97;5.67;;;;;;;12.81;100.00;101027.97;5077699;28;20190;-82
2023/09/30 02:40:46;;;;;;;9.83;5.33;;;;;;;12.74;100.00;101031.56;5075449;28;20227;-84
2023/09/30 02:43:12;;;;;;;13.83;6.10;;;;;;;12.74;100.00;101039.44;5067143;28;20266;-83
2023/09/30 02:45:39;;;;;;;10.13;5.90;;;;;;;12.88;100.00;101032.16;5068840;28;20207;-83
2023/09/30 02:48:08;;;;;;;13.67;6.30;;;;;;;12.88;100.00;101037.41;5050551;28;20219;-83
2023/09/30 02:50:35;;;;;;;14.23;6.87;;;;;;;12.89;100.00;101047.88;5064718;28;20263;-84
2023/09/30 02:53:01;;;;;;;13.87;5.70;;;;;;;13.04;100.00;101067.69;5063413;28;20209;-85
2023/09/30 02:55:27;;;;;;;15.67;6.67;;;;;;;13.21;100.00;101075.22;5063840;28;20229;-82
2023/09/30 02:57:54;;;;;;;10.00;6.60;;;;;;;13.02;100.00;101090.44;5064274;28;20551;-84
2023/09/30 03:00:23;;;;;;;13.97;5.83;;;;;;;13.01;100.00;101085.22;5064054;28;20240;-84
2023/09/30 03:02:50;;;;;;;11.97;5.30;;;;;;;13.13;100.00;101073.66;5067115;28;20208;-82
2023/09/30 03:05:18;;;;;;;8.97;5.80;;;;;;;13.19;100.00;101100.59;5068149;28;20198;-82
2023/09/30 03:07:46;;;;;;;11.23;5.50;;;;;;;13.04;100.00;101104.41;5068769;28;20205;-82
2023/09/30 03:10:14;;;;;;;10.47;5.40;;;;;;;13.10;100.00;101096.41;5055755;28;20260;-81
2023/09/30 03:12:40;;;;;;;12.03;6.00;;;;;;;13.10;100.00;101093.78;5064783;28;20251;-83
2023/09/30 03:15:09;;;;;;;12.90;5.90;;;;;;;13.28;100.00;101096.97;5062936;28;20322;-82
2023/09/30 03:17:36;;;;;;;17.57;5.10;;;;;;;13.33;100.00;101103.00;5067916;28;20291;-83
2023/09/30 03:20:09;;;;;;;9.50;4.73;;;;;;;13.34;100.00;101133.56;5055465;28;20245;-84
2023/09/30 03:22:36;;;;;;;10.97;5.10;;;;;;;13.46;100.00;101130.72;5048075;28;20628;-83
2023/09/30 03:25:06;;;;;;;7.43;4.90;;;;;;;13.40;100.00;101143.94;5047204;28;20197;-83
2023/09/30 03:27:33;;;;;;;8.57;4.40;;;;;;;13.48;100.00;101136.78;5047973;28;20209;-85
2023/09/30 03:30:01;;;;;;;8.33;4.57;;;;;;;13.45;100.00;101149.94;5049997;28;20240;-82
2023/09/30 03:32:27;;;;;;;7.90;5.00;;;;;;;13.56;100.00;101157.63;5061546;28;20204;-83
2023/09/30 03:34:54;;;;;;;7.97;5.00;;;;;;;13.48;100.00;101170.88;5058253;28;20225;-81
2023/09/30 03:37:20;;;;;;;8.47;4.17;;;;;;;13.57;100.00;101171.59;5071368;28;20206;-84
2023/09/30 03:39:49;;;;;;;7.77;4.60;;;;;;;13.58;100.00;101179.44;5070538;28;20225;-83
2023/09/30 03:42:16;;;;;;;7.10;4.53;;;;;;;13.60;100.00;101177.66;5063837;28;20203;-85
2023/09/30 03:44:42;;;;;;;9.00;4.77;;;;;;;13.75;100.00;101189.59;5059956;28;20205;-83
2023/09/30 03:47:09;;;;;;;9.50;4.53;;;;;;;13.63;100.00;101208.19;5064346;28;20879;-83
2023/09/30 03:49:38;;;;;;;6.83;4.80;;;;;;;13.57;100.00;101210.94;5068546;28;20229;-84
2023/09/30 03:52:06;;;;;;;7.67;4.90;;;;;;;13.75;99.56;101209.72;5068586;28;20208;-84
2023/09/30 03:54:32;;;;;;;8.23;4.70;;;;;;;13.72;99.28;101231.66;5069009;28;20237;-85
2023/09/30 03:57:00;;;;;;;7.50;4.77;;;;;;;13.76;98.22;101238.56;5068950;28;20729;-81
2023/09/30 03:59:27;;;;;;;7.33;4.37;;;;;;;13.76;98.51;101243.81;5068541;28;20617;-81
2023/09/30 04:01:54;;;;;;;9.93;5.50;;;;;;;13.70;98.14;101246.56;5052866;28;20222;-84
2023/09/30 04:04:21;;;;;;;9.13;4.50;;;;;;;13.80;98.09;101237.59;5048956;28;20213;-84
2023/09/30 04:06:47;;;;;;;11.27;5.27;;;;;;;13.84;97.66;101254.16;5057444;28;20209;-84
2023/09/30 04:09:15;;;;;;;6.77;4.20;;;;;;;13.94;96.30;101274.09;5069026;28;20220;-84
2023/09/30 04:11:42;;;;;;;9.17;4.80;;;;;;;13.84;95.88;101293.53;5069346;28;20209;-83
2023/09/30 04:14:11;;;;;;;7.50;4.53;;;;;;;13.72;97.41;101284.13;5068655;28;20202;-82
2023/09/30 04:16:37;;;;;;;7.33;4.20;;;;;;;13.80;97.39;101278.75;5048901;28;20205;-83
2023/09/30 04:19:07;;;;;;;6.50;3.93;;;;;;;13.88;96.48;101290.81;5067607;28;20210;-82
2023/09/30 04:21:34;;;;;;;11.33;4.20;;;;;;;13.90;95.65;101294.25;5069149;28;20606;-83
2023/09/30 04:24:00;;;;;;;9.60;5.17;;;;;;;13.93;95.46;101293.34;5069473;28;20279;-83
2023/09/30 04:26:27;;;;;;;7.87;5.20;;;;;;;13.96;95.12;101309.03;5069151;28;20202;-84
2023/09/30 04:28:53;;;;;;;10.03;4.23;;;;;;;14.02;94.34;101324.66;5069009;28;20202;-85
2023/09/30 04:31:23;;;;;;;5.20;3.50;;;;;;;14.10;93.79;101327.16;5069748;28;20205;-85
2023/09/30 04:33:50;;;;;;;6.73;3.90;;;;;;;14.09;92.96;101344.66;5068889;28;20209;-82
2023/09/30 04:36:17;;;;;;;7.30;4.20;;;;;;;13.95;93.98;101348.44;5068629;28;20208;-84
2023/09/30 04:38:44;;;;;;;7.37;4.23;;;;;;;13.99;93.80;101343.09;5062909;28;20214;-85
2023/09/30 04:41:10;;;;;;;7.73;3.83;;;;;;;13.99;93.65;101347.47;5060079;28;20748;-84
2023/09/30 04:43:38;;;;;;;10.80;4.17;;;;;;;13.88;94.92;101335.44;5064127;28;20265;-83
2023/09/30 04:46:07;;;;;;;8.50;3.70;;;;;;;14.00;94.25;101341.34;5074174;28;20210;-83
2023/09/30 04:48:34;;;;;;;7.83;4.07;;;;;;;14.01;93.76;101348.31;5049441;28;20226;-84
2023/09/30 04:51:04;;;;;;;12.63;4.53;;;;;;;14.01;94.00;101346.59;5059560;28;20587;-83
2023/09/30 04:53:33;;;;;;;6.70;3.93;;;;;;;14.03;93.31;101346.53;5069896;28;20193;-84
2023/09/30 04:56:00;;;;;;;8.03;3.90;;;;;;;14.04;93.23;101364.88;5068634;28;20232;-82
2023/09/30 04:58:26;;;;;;;7.63;3.60;;;;;;;13.76;93.85;101356.66;5063736;28;20213;-85
2023/09/30 05:00:52;;;;;;;9.47;4.50;;;;;;;13.79;94.56;101342.59;5048832;28;20233;-81
2023/09/30 05:03:19;;;;;;;7.40;3.93;;;;;;;13.94;94.53;101328.34;5049053;28;20205;-83
2023/09/30 05:05:47;;;;;;;7.10;3.77;;;;;;;13.95;93.99;101333.53;5048971;28;20206;-83
2023/09/30 05:08:14;;;;;;;14.53;4.47;;;;;;;13.93;93.31;101350.22;5050261;28;20205;-84
2023/09/30 05:10:40;;;;;;;9.00;4.00;;;;;;;13.70;95.33;101331.38;5049266;28;20253;-84
2023/09/30 05:13:07;;;;;;;11.37;4.40;;;;;;;13.81;95.12;101323.28;5050270;28;20229;-84
2023/09/30 05:15:35;;;;;;;8.00;3.70;;;;;;;13.84;94.85;101319.78;5059235;28;20229;-83
2023/09/30 05:18:01;;;;;;;13.23;4.27;;;;;;;13.93;94.20;101327.47;5049364;28;20292;-84
2023/09/30 05:20:28;;;;;;;10.10;4.00;;;;;;;13.93;93.94;101343.19;5055297;28;20220;-84
2023/09/30 05:22:56;;;;;;;6.17;3.63;;;;;;;13.97;93.85;101347.50;5069483;28;20220;-84
2023/09/30 05:25:26;;;;;;;5.73;3.23;;;;;;;13.94;93.22;101370.34;5068118;28;20208;-83
2023/09/30 05:27:52;;;;;;;8.00;3.53;;;;;;;13.95;93.51;101366.81;5070331;28;20204;-85
2023/09/30 05:30:20;;;;;;;8.97;3.93;;;;;;;13.94;93.28;101375.59;5069680;28;20288;-84
2023/09/30 05:32:46;;;;;;;6.80;3.20;;;;;;;13.95;93.15;101366.81;5060628;28;20678;-83
2023/09/30 05:35:14;;;;;;;7.80;3.13;;;;;;;13.90;93.29;101369.53;5049288;28;20226;-84
2023/09/30 05:37:41;;;;;;;7.70;2.93;;;;;;;13.87;94.10;101359.97;5066207;28;20258;-84
2023/09/30 05:40:16;;;;;;;6.57;3.53;;;;;;;13.90;94.35;101351.16;5070128;28;20232;-84
2023/09/30 05:42:44;;;;;;;7.90;3.80;;;;;;;13.69;95.61;101334.88;5070498;28;20556;-84
2023/09/30 05:45:12;;;;;;;7.97;3.20;;;;;;;13.78;95.79;101306.78;5069249;28;21061;-84
2023/09/30 05:47:39;;;;;;;10.57;4.10;;;;;;;13.73;96.06;101306.81;5069556;28;20228;-84
2023/09/30 05:50:07;;;;;;;6.23;3.33;;;;;;;13.80;96.15;101303.22;5063713;28;20228;-82
2023/09/30 05:52:34;;;;;;;12.53;3.17;;;;;;;13.89;95.67;101300.44;5063526;28;20229;-83
2023/09/30 05:55:01;;;;;;;11.30;3.60;;;;;;;13.74;96.78;101294.59;5076124;28;20209;-83
2023/09/30 05:57:29;;;;;;;7.57;3.30;;;;;;;13.82;97.04;101282.19;5071546;28;20204;-82
2023/09/30 05:59:56;;;;;;;9.67;3.20;;;;;;;13.92;96.71;101294.25;5073462;28;20227;-82
2023/09/30 06:02:23;;;;;;;7.40;3.30;;;;;;;13.96;96.52;101298.53;5076187;28;20188;-83
2023/09/30 06:04:50;;;;;;;10.53;3.57;;;;;;;13.96;96.08;101302.94;5075649;28;20197;-83
2023/09/30 06:07:19;;;;;;;8.80;3.60;;;;;;;14.03;95.94;101309.78;5073126;28;20205;-82
2023/09/30 06:09:48;;;;;;;7.87;3.37;;;;;;;14.08;96.02;101327.19;5070113;28;20256;-82
2023/09/30 06:12:14;;;;;;;7.43;4.17;;;;;;;14.06;95.50;101331.59;5066904;28;20578;-83
2023/09/30 06:14:42;;;;;;;8.40;3.40;;;;;;;14.15;95.20;101348.06;5068419;28;20204;-83
2023/09/30 06:17:08;;;;;;;10.10;4.13;;;;;;;14.12;95.00;101359.50;5067131;28;20232;-80
2023/09/30 06:19:34;;;;;;;9.13;4.03;;;;;;;14.18;95.84;101359.38;5046805;28;20224;-81
2023/09/30 06:22:03;;;;;;;5.63;3.90;;;;;;;14.25;95.47;101361.00;5042105;28;20212;-81
2023/09/30 06:24:29;;;;;;;11.50;4.33;;;;;;;14.30;95.02;101377.50;5043698;28;20204;-82
2023/09/30 06:26:56;;;;;;;8.60;3.73;;;;;;;14.35;94.82;101376.56;5044558;28;20686;-82
2023/09/30 06:29:23;;;;;;;4.57;3.20;;;;;;;14.36;94.60;101380.94;5058701;28;20217;-79
2023/09/30 06:31:51;;;;;;;6.90;3.73;;;;;;;14.38;94.54;101376.50;5067625;28;20251;-83
2023/09/30 06:34:17;;;;;;;9.97;4.10;;;;;;;14.34;94.33;101385.34;5064922;28;20225;-81
2023/09/30 06:36:43;;;;;;;7.43;3.63;;;;;;;14.33;95.13;101373.09;5066142;28;20228;-80
2023/09/30 06:39:10;;;;;;;8.43;3.40;;;;;;;14.39;95.22;101378.22;5067640;28;20666;-81
2023/09/30 06:41:37;;;;;;;12.40;4.40;;;;;;;14.41;95.10;101377.31;5062668;28;20208;-81
2023/09/30 06:44:04;;;;;;;15.20;3.70;;;;;;;14.43;94.63;101393.91;5058621;28;20231;-82
2023/09/30 06:46:30;;;;;;;9.90;4.00;;;;;;;14.46;94.93;101390.34;5071419;28;20198;-81
2023/09/30 06:48:59;;;;;;;14.37;4.50;;;;;;;14.42;95.39;101386.91;5068052;28;20201;-81
2023/09/30 06:51:26;;;;;;;10.83;4.20;;;;;;;14.44;95.45;101376.38;5069631;28;20201;-82
2023/09/30 06:53:53;;;;;;;11.07;4.13;;;;;;;14.43;95.91;101372.00;5069248;28;20601;-83
2023/09/30 06:56:19;;;;;;;12.30;3.77;;;;;;;14.44;95.41;101368.50;5067062;28;20228;-82
2023/09/30 06:58:46;;;;;;;10.30;3.47;;;;;;;14.44;95.82;101365.88;5066956;28;20220;-84
2023/09/30 07:01:16;;;;;;;6.17;2.90;;;;;;;14.51;95.94;101370.13;5067793;28;20240;-84
2023/09/30 07:03:43;;;;;;;12.67;4.17;;;;;;;14.40;95.92;101380.84;5067330;28;20225;-81
2023/09/30 07:06:11;;;;;;;9.47;4.13;;;;;;;14.42;96.06;101381.66;5066809;28;20210;-83
2023/09/30 07:08:37;;;;;;;7.20;3.47;;;;;;;14.52;95.81;101384.97;5068461;28;20212;-81
2023/09/30 07:11:05;;;;;;;10.60;3.73;;;;;;;14.64;94.96;101399.66;5066331;28;20229;-84
2023/09/30 07:13:31;;;;;;;13.93;4.27;;;;;;;14.68;95.11;101401.31;5058033;28;20205;-81
2023/09/30 07:15:58;;;;;;;8.80;3.80;;;;;;;14.72;94.85;101396.88;5069640;28;20235;-82
2023/09/30 07:18:24;;;;;;;9.03;4.33;;;;;;;14.74;94.80;101401.19;5069543;28;20208;-84
2023/09/30 07:20:51;;;;;;;8.57;3.70;;;;;;;14.77;95.21;101400.28;5067716;28;20255;-80
2023/09/30 07:23:20;;;;;;;11.97;4.40;;;;;;;14.61;96.25;101399.75;5067835;28;20216;-80
2023/09/30 07:25:47;;;;;;;11.30;3.67;;;;;;;14.71;96.52;101385.50;5067869;28;20213;-81
2023/09/30 07:28:13;;;;;;;7.63;3.90;;;;;;;14.77;95.87;101398.53;5069357;28;20211;-82
2023/09/30 07:30:40;;;;;;;10.37;3.60;;;;;;;14.86;95.61;101407.97;5068549;28;20241;-80
2023/09/30 07:33:07;;;;;;;9.07;3.77;;;;;;;14.83;95.42;101415.94;5067223;28;20216;-81
2023/09/30 07:35:34;;;;;;;10.83;3.90;;;;;;;14.84;95.68;101405.34;5058592;28;20709;-80
2023/09/30 07:38:01;;;;;;;11.57;3.70;;;;;;;14.88;95.50;101400.91;5064141;28;20219;-83
2023/09/30 07:40:29;;;;;;;8.77;3.67;;;;;;;14.85;95.91;101404.47;5064881;28;20240;-83
2023/09/30 07:42:55;;;;;;;8.10;3.67;;;;;;;14.66;95.67;101422.38;5063752;28;20201;-82
2023/09/30 07:45:22;;;;;;;9.23;3.37;;;;;;;14.73;95.85;101415.25;5064087;28;20219;-83
2023/09/30 07:47:49;;;;;;;7.87;3.73;;;;;;;14.91;95.59;101415.78;5062516;28;20630;-82
2023/09/30 07:50:15;;;;;;;7.73;3.83;;;;;;;14.66;95.65;101435.50;5062284;28;20228;-82
2023/09/30 07:52:42;;;;;;;12.53;3.83;;;;;;;14.73;95.85;101423.13;5064006;28;20200;-83
2023/09/30 07:55:09;;;;;;;5.53;3.20;;;;;;;14.83;96.62;101408.03;5062163;28;20224;-82
2023/09/30 07:57:38;;;;;;;12.93;4.20;;;;;;;15.02;95.74;101417.25;5055513;28;20229;-82
2023/09/30 08:00:08;;;;;;;7.67;3.73;;;;;;;15.15;94.96;101436.28;5051809;28;20315;-81
2023/09/30 08:02:36;;;;;;;12.87;4.33;;;;;;;15.15;95.28;101443.31;5053029;28;20678;-81
2023/09/30 08:05:03;;;;;;;7.73;4.37;;;;;;;15.15;94.84;101452.03;5051362;28;20236;-80
2023/09/30 08:07:29;;;;;;;5.87;3.73;;;;;;;15.09;94.82;101447.78;5054282;28;20228;-81
2023/09/30 08:09:56;;;;;;;10.20;3.87;;;;;;;15.25;94.53;101456.19;5051480;28;20303;-79
2023/09/30 08:12:22;;;;;;;10.13;4.03;;;;;;;15.41;93.59;101469.03;5053814;28;20204;-79
2023/09/30 08:14:51;;;;;;;11.13;4.20;;;;;;;15.28;93.27;101479.81;5049398;28;20206;-80
2023/09/30 08:17:18;;;;;;;11.93;4.30;;;;;;;15.38;93.64;101483.13;5052657;28;20241;-79
2023/09/30 08:19:46;;;;;;;10.53;4.00;;;;;;;15.35;94.06;101477.91;5056971;28;20218;-80
2023/09/30 08:22:13;;;;;;;9.53;4.07;;;;;;;15.59;94.26;101467.72;5054831;28;20647;-80
2023/09/30 08:24:39;;;;;;;8.83;4.40;;;;;;;15.36;93.90;101477.03;5054754;28;20907;-80
2023/09/30 08:27:06;;;;;;;10.40;4.33;;;;;;;15.59;93.97;101470.38;5055545;28;20209;-80
2023/09/30 08:29:41;;;;;;;9.93;4.93;;;;;;;15.54;92.63;101496.81;5056699;28;20221;-79
2023/09/30 08:32:08;;;;;;;7.77;4.50;;;;;;;15.42;92.80;101510.19;5056196;28;20223;-80
2023/09/30 08:34:35;;;;;;;8.47;4.93;;;;;;;15.57;92.82;101499.34;5051406;28;20209;-81
2023/09/30 08:37:10;;;;;;;10.50;5.27;;;;;;;15.62;94.28;101486.97;5048762;28;20233;-79
2023/09/30 08:39:39;;;;;;;9.80;4.87;;;;;;;15.65;94.21;101483.38;5047472;28;20770;-82
2023/09/30 08:42:10;;;;;;;12.27;4.67;;;;;;;15.73;93.68;101496.41;5047681;28;20688;-81
2023/09/30 08:44:39;;;;;;;7.40;4.10;;;;;;;15.82;92.47;101506.72;5047259;28;20205;-82
2023/09/30 08:47:06;;;;;;;11.03;4.80;;;;;;;15.82;92.36;101522.53;5047975;28;20201;-81
2023/09/30 08:49:35;;;;;;;9.10;4.53;;;;;;;15.93;92.55;101509.94;5048340;28;20229;-81
2023/09/30 08:52:03;;;;;;;7.83;4.27;;;;;;;15.87;90.88;101542.56;5054543;28;20213;-81
2023/09/30 08:54:29;;;;;;;9.60;3.90;;;;;;;15.92;89.84;101552.13;5054394;28;20212;-81
2023/09/30 08:56:56;;;;;;;10.77;4.37;;;;;;;15.93;89.88;101561.75;5054384;28;20244;-83
2023/09/30 08:59:24;;;;;;;12.07;5.20;;;;;;;15.88;88.13;101586.44;5054315;28;20228;-82
2023/09/30 09:01:50;;;;;;;9.80;4.53;;;;;;;15.89;89.14;101603.94;5054806;28;20198;-81
2023/09/30 09:04:18;;;;;;;7.17;4.90;;;;;;;15.95;89.33;101596.81;5054450;28;20209;-83
2023/09/30 09:06:46;;;;;;;5.37;3.40;;;;;;;15.99;87.94;101623.03;5054592;28;20228;-83
2023/09/30 09:09:16;;;;;;;8.60;3.60;;;;;;;16.07;87.51;101642.19;5054469;28;20248;-82
2023/09/30 09:11:43;;;;;;;8.10;3.90;;;;;;;16.12;86.96;101646.50;5054888;28;20260;-83
2023/09/30 09:14:10;;;;;;;8.43;4.20;;;;;;;16.04;86.44;101657.19;5054790;28;20247;-82
2023/09/30 09:16:36;;;;;;;8.80;4.07;;;;;;;16.13;86.15;101667.50;5042595;28;20229;-83
2023/09/30 09:19:14;;;;;;;10.33;4.23;;;;;;;16.14;85.46;101685.06;5034353;28;20236;-83
2023/09/30 09:21:56;;;;;;;8.23;3.63;;;;;;;16.03;84.42;101702.84;5034873;28;20201;-82
2023/09/30 09:24:32;;;;;;;6.73;3.20;;;;;;;16.20;84.12;101727.06;5034260;28;20206;-82
2023/09/30 09:27:06;;;;;;;7.53;3.87;;;;;;;16.22;83.33;101742.84;5034414;28;20214;-82
2023/09/30 09:29:33;;;;;;;7.83;3.40;;;;;;;16.38;83.90;101725.81;5034719;28;20218;-82
2023/09/30 09:32:11;;;;;;;6.77;2.30;;;;;;;16.38;82.08;101754.78;5035231;28;20214;-81
2023/09/30 09:34:37;;;;;;;6.40;2.50;;;;;;;16.61;81.59;101774.47;5034032;28;20198;-82
2023/09/30 09:37:15;;;;;;;5.07;2.10;;;;;;;16.55;80.83;101798.34;5034420;28;20720;-82
2023/09/30 09:39:53;;;;;;;5.37;2.20;;;;;;;16.72;80.46;101801.47;5034254;28;20312;-83
2023/09/30 09:42:27;;;;;;;4.27;2.23;;;;;;;16.62;79.60;101826.31;5034682;28;20620;-82
2023/09/30 09:44:55;;;;;;;9.97;2.40;;;;;;;16.80;79.59;101843.50;5048050;28;20201;-83
2023/09/30 09:47:22;;;;;;;6.93;2.20;;;;;;;16.88;79.10;101845.09;5053715;28;20295;-82
2023/09/30 09:49:49;;;;;;;5.53;2.27;;;;;;;16.67;78.97;101856.97;5052921;28;20225;-81
2023/09/30 09:52:18;;;;;;;5.17;2.93;;;;;;;16.75;79.44;101843.63;5053866;28;20213;-83
2023/09/30 09:54:46;;;;;;;9.00;3.17;;;;;;;16.94;79.08;101833.53;5054843;28;20632;-82
2023/09/30 09:57:14;;;;;;;6.40;2.80;;;;;;;16.96;78.29;101868.66;5054361;28;20319;-82
2023/09/30 09:59:41;;;;;;;5.07;2.77;;;;;;;16.97;78.70;101854.59;5050694;28;20651;-83
2023/09/30 10:02:12;;;;;;;8.17;3.20;;;;;;;17.03;78.54;101858.84;5034478;28;20676;-81
2023/09/30 10:04:38;;;;;;;4.73;2.07;;;;;;;17.02;76.75;101896.69;5045734;28;20240;-82
2023/09/30 10:07:07;;;;;;;8.67;2.83;;;;;;;17.04;76.45;101908.91;5054917;28;20680;-81
2023/09/30 10:09:36;;;;;;;6.93;2.40;;;;;;;17.14;77.09;101906.09;5052095;28;20218;-81
2023/09/30 10:12:23;;;;;;;6.13;2.40;;;;;;;17.10;76.51;101918.47;5047364;28;20216;-77
2023/09/30 10:14:52;;;;;;;4.70;2.17;;;;;;;17.11;75.25;101943.97;5047881;28;20215;-78
2023/09/30 10:18:11;;;;;;;5.23;2.70;;;;;;;17.22;76.05;101926.13;5050681;28;20266;-76
2023/09/30 10:20:51;;;;;;;5.17;2.30;;;;;;;17.01;74.52;101971.47;5065887;28;20275;-78
2023/09/30 10:26:18;;;;;;;6.73;2.77;;;;;;;17.40;73.48;101987.31;5065148;28;20214;-80
2023/09/30 10:28:46;;;;;;;6.53;1.87;;;;;;;17.31;71.11;102024.47;5067320;28;20225;-78
2023/09/30 10:31:16;;;;;;;3.20;1.53;;;;;;;17.41;70.16;102069.13;5065324;28;20233;-79
2023/09/30 10:34:19;;;;;;;6.27;1.93;;;;;;;17.61;71.11;102076.59;5053469;28;20205;-80
2023/09/30 10:36:47;;;;;;;5.73;2.30;;;;;;;17.77;70.24;102095.63;5053796;28;20307;-82
2023/09/30 10:39:14;;;;;;;4.80;1.80;;;;;;;17.54;70.19;102114.63;5053641;28;20229;-80
2023/09/30 10:41:51;;;;;;;4.70;1.90;;;;;;;17.69;70.27;102116.06;5052842;28;20211;-81
2023/09/30 10:44:34;;;;;;;3.40;1.50;;;;;;;17.88;67.99;102155.28;5052485;28;20253;-79
2023/09/30 10:47:42;;;;;;;6.27;1.50;;;;;;;17.60;65.77;102246.53;5053282;28;20656;-79
2023/09/30 10:50:51;;;;;;;2.90;1.53;;;;;;;17.64;67.65;102207.69;5024540;28;20234;-80
2023/09/30 10:53:18;;;;;;;4.33;1.90;;;;;;;17.72;68.33;102200.53;5051177;28;20255;-78
2023/09/30 10:55:46;;;;;;;4.90;1.40;;;;;;;17.75;64.73;102237.41;5050998;28;20206;-80
2023/09/30 10:58:14;;;;;;;3.63;1.93;;;;;;;17.70;63.64;102296.50;5051874;28;20703;-80
2023/09/30 11:00:53;;;;;;;3.70;2.00;;;;;;;17.95;62.35;102321.59;5052069;28;20229;-80
2023/09/30 11:03:20;;;;;;;3.87;1.53;;;;;;;18.14;62.81;102337.09;5052015;28;20275;-79
2023/09/30 11:05:48;;;;;;;4.53;1.40;;;;;;;18.05;62.07;102359.28;5051558;28;20237;-80
2023/09/30 11:08:17;;;;;;;3.43;2.00;;;;;;;18.35;62.85;102351.63;5045317;28;20295;-80
2023/09/30 11:10:48;;;;;;;4.13;1.63;;;;;;;18.28;63.63;102332.41;5033396;28;20256;-80
2023/09/30 11:13:16;;;;;;;7.33;2.20;;;;;;;18.12;63.28;102345.06;5033349;28;20207;-80
2023/09/30 11:15:42;;;;;;;6.73;1.63;;;;;;;18.38;62.90;102330.44;5044448;28;20242;-79
2023/09/30 11:18:16;;;;;;;3.30;1.90;;;;;;;18.36;62.48;102332.25;5054170;28;20245;-80
2023/09/30 11:20:44;;;;;;;2.83;1.30;;;;;;;18.54;60.98;102336.25;5044386;28;20226;-80
2023/09/30 11:23:11;;;;;;;3.07;1.33;;;;;;;18.83;58.70;102383.28;5054462;28;20211;-80
2023/09/30 11:25:39;;;;;;;4.30;1.10;;;;;;;19.23;59.50;102406.19;5037092;28;20250;-80
2023/09/30 11:28:18;;;;;;;4.67;2.93;;;;;;;19.56;59.20;102417.75;5047986;28;20279;-78